sensor_id;sensor_type;location;lat;lon;timestamp;P1;durP1;ratioP1;P2;durP2;ratioP2
19301;SDS011;9785;59.362;12.152;2023-06-22T00:01:23;17.67;;;10.30;;
19301;SDS011;9785;59.362;12.152;2023-06-22T00:03:52;19.50;;;10.03;;
19301;SDS011;9785;59.362;12.152;2023-06-22T00:06:20;13.23;;;9.07;;
19301;SDS011;9785;59.362;12.152;2023-06-22T00:08:50;18.30;;;9.80;;
19301;SDS011;9785;59.362;12.152;2023-06-22T00:11:19;14.20;;;9.57;;
19301;SDS011;9785;59.362;12.152;2023-06-22T00:13:48;12.57;;;8.80;;
19301;SDS011;9785;59.362;12.152;2023-06-22T00:16:17;14.47;;;9.53;;
19301;SDS011;9785;59.362;12.152;2023-06-22T00:18:46;13.47;;;9.00;;
19301;SDS011;9785;59.362;12.152;2023-06-22T00:21:15;16.47;;;9.27;;
19301;SDS011;9785;59.362;12.152;2023-06-22T00:23:46;19.60;;;9.13;;
19301;SDS011;9785;59.362;12.152;2023-06-22T00:26:16;13.13;;;9.53;;
19301;SDS011;9785;59.362;12.152;2023-06-22T00:28:45;14.20;;;8.33;;
19301;SDS011;9785;59.362;12.152;2023-06-22T00:31:14;12.57;;;8.83;;
19301;SDS011;9785;59.362;12.152;2023-06-22T00:33:42;17.53;;;8.13;;
19301;SDS011;9785;59.362;12.152;2023-06-22T00:36:11;11.17;;;7.63;;
19301;SDS011;9785;59.362;12.152;2023-06-22T00:38:42;13.57;;;7.87;;
19301;SDS011;9785;59.362;12.152;2023-06-22T00:41:11;15.07;;;8.17;;
19301;SDS011;9785;59.362;12.152;2023-06-22T00:43:41;12.30;;;8.37;;
19301;SDS011;9785;59.362;12.152;2023-06-22T00:46:10;14.40;;;8.63;;
19301;SDS011;9785;59.362;12.152;2023-06-22T00:48:39;10.50;;;7.33;;
19301;SDS011;9785;59.362;12.152;2023-06-22T00:51:10;10.77;;;7.10;;
19301;SDS011;9785;59.362;12.152;2023-06-22T00:53:39;12.83;;;7.97;;
19301;SDS011;9785;59.362;12.152;2023-06-22T00:56:09;10.20;;;6.43;;
19301;SDS011;9785;59.362;12.152;2023-06-22T00:58:39;9.90;;;6.50;;
19301;SDS011;9785;59.362;12.152;2023-06-22T01:01:09;8.30;;;6.80;;
19301;SDS011;9785;59.362;12.152;2023-06-22T01:03:38;11.07;;;7.03;;
19301;SDS011;9785;59.362;12.152;2023-06-22T01:06:08;13.03;;;6.90;;
19301;SDS011;9785;59.362;12.152;2023-06-22T01:08:39;9.80;;;7.17;;
19301;SDS011;9785;59.362;12.152;2023-06-22T01:11:12;10.40;;;6.53;;
19301;SDS011;9785;59.362;12.152;2023-06-22T01:13:45;8.00;;;5.90;;
19301;SDS011;9785;59.362;12.152;2023-06-22T01:16:16;10.50;;;6.80;;
19301;SDS011;9785;59.362;12.152;2023-06-22T01:18:46;10.30;;;6.80;;
19301;SDS011;9785;59.362;12.152;2023-06-22T01:21:16;12.43;;;6.80;;
19301;SDS011;9785;59.362;12.152;2023-06-22T01:23:58;11.20;;;6.27;;
19301;SDS011;9785;59.362;12.152;2023-06-22T01:26:35;8.77;;;6.13;;
19301;SDS011;9785;59.362;12.152;2023-06-22T01:29:07;11.43;;;6.00;;
19301;SDS011;9785;59.362;12.152;2023-06-22T01:31:38;8.87;;;5.47;;
19301;SDS011;9785;59.362;12.152;2023-06-22T01:34:08;9.20;;;6.10;;
19301;SDS011;9785;59.362;12.152;2023-06-22T01:36:36;9.07;;;6.27;;
19301;SDS011;9785;59.362;12.152;2023-06-22T01:39:06;10.53;;;6.50;;
19301;SDS011;9785;59.362;12.152;2023-06-22T01:41:36;9.37;;;6.67;;
19301;SDS011;9785;59.362;12.152;2023-06-22T01:44:05;9.17;;;6.90;;
19301;SDS011;9785;59.362;12.152;2023-06-22T01:46:36;12.30;;;6.60;;
19301;SDS011;9785;59.362;12.152;2023-06-22T01:49:05;8.47;;;6.17;;
19301;SDS011;9785;59.362;12.152;2023-06-22T01:51:34;9.73;;;6.07;;
19301;SDS011;9785;59.362;12.152;2023-06-22T01:54:05;10.13;;;5.80;;
19301;SDS011;9785;59.362;12.152;2023-06-22T01:56:34;13.97;;;6.77;;
19301;SDS011;9785;59.362;12.152;2023-06-22T01:59:04;7.97;;;6.40;;
19301;SDS011;9785;59.362;12.152;2023-06-22T02:01:39;10.47;;;5.83;;
19301;SDS011;9785;59.362;12.152;2023-06-22T02:04:11;8.37;;;6.03;;
19301;SDS011;9785;59.362;12.152;2023-06-22T02:06:42;11.07;;;6.53;;
19301;SDS011;9785;59.362;12.152;2023-06-22T02:09:12;10.80;;;6.23;;
19301;SDS011;9785;59.362;12.152;2023-06-22T02:11:43;9.90;;;6.63;;
19301;SDS011;9785;59.362;12.152;2023-06-22T02:14:12;11.90;;;6.80;;
19301;SDS011;9785;59.362;12.152;2023-06-22T02:16:45;7.50;;;5.57;;
19301;SDS011;9785;59.362;12.152;2023-06-22T02:19:14;7.43;;;5.77;;
19301;SDS011;9785;59.362;12.152;2023-06-22T02:21:45;7.90;;;6.33;;
19301;SDS011;9785;59.362;12.152;2023-06-22T02:24:13;9.00;;;6.10;;
19301;SDS011;9785;59.362;12.152;2023-06-22T02:26:42;9.20;;;5.87;;
19301;SDS011;9785;59.362;12.152;2023-06-22T02:29:12;11.47;;;6.13;;
19301;SDS011;9785;59.362;12.152;2023-06-22T02:31:41;12.57;;;6.10;;
19301;SDS011;9785;59.362;12.152;2023-06-22T02:34:11;9.57;;;6.30;;
19301;SDS011;9785;59.362;12.152;2023-06-22T02:36:45;9.10;;;5.63;;
19301;SDS011;9785;59.362;12.152;2023-06-22T02:39:19;7.17;;;5.50;;
19301;SDS011;9785;59.362;12.152;2023-06-22T02:41:49;9.50;;;5.03;;
19301;SDS011;9785;59.362;12.152;2023-06-22T02:44:18;7.27;;;5.07;;
19301;SDS011;9785;59.362;12.152;2023-06-22T02:46:47;8.40;;;5.23;;
19301;SDS011;9785;59.362;12.152;2023-06-22T02:49:17;7.43;;;5.20;;
19301;SDS011;9785;59.362;12.152;2023-06-22T02:51:46;7.33;;;4.67;;
19301;SDS011;9785;59.362;12.152;2023-06-22T02:54:15;8.07;;;5.63;;
19301;SDS011;9785;59.362;12.152;2023-06-22T02:56:44;5.60;;;4.97;;
19301;SDS011;9785;59.362;12.152;2023-06-22T02:59:13;5.20;;;4.00;;
19301;SDS011;9785;59.362;12.152;2023-06-22T03:01:41;4.53;;;4.13;;
19301;SDS011;9785;59.362;12.152;2023-06-22T03:04:10;4.70;;;4.30;;
19301;SDS011;9785;59.362;12.152;2023-06-22T03:06:40;6.17;;;4.13;;
19301;SDS011;9785;59.362;12.152;2023-06-22T03:09:08;6.67;;;4.10;;
19301;SDS011;9785;59.362;12.152;2023-06-22T03:11:37;6.80;;;3.97;;
19301;SDS011;9785;59.362;12.152;2023-06-22T03:14:06;4.07;;;3.53;;
19301;SDS011;9785;59.362;12.152;2023-06-22T03:16:35;7.60;;;3.87;;
19301;SDS011;9785;59.362;12.152;2023-06-22T03:19:04;5.33;;;3.77;;
19301;SDS011;9785;59.362;12.152;2023-06-22T03:21:32;4.67;;;3.30;;
19301;SDS011;9785;59.362;12.152;2023-06-22T03:24:02;3.83;;;3.27;;
19301;SDS011;9785;59.362;12.152;2023-06-22T03:26:31;5.07;;;3.50;;
19301;SDS011;9785;59.362;12.152;2023-06-22T03:29:00;4.27;;;3.60;;
19301;SDS011;9785;59.362;12.152;2023-06-22T03:31:29;5.07;;;3.13;;
19301;SDS011;9785;59.362;12.152;2023-06-22T03:33:58;4.83;;;3.37;;
19301;SDS011;9785;59.362;12.152;2023-06-22T03:36:26;4.73;;;3.33;;
19301;SDS011;9785;59.362;12.152;2023-06-22T03:38:55;4.37;;;2.97;;
19301;SDS011;9785;59.362;12.152;2023-06-22T03:41:25;3.97;;;3.20;;
19301;SDS011;9785;59.362;12.152;2023-06-22T03:43:58;3.03;;;2.60;;
19301;SDS011;9785;59.362;12.152;2023-06-22T03:46:27;3.60;;;3.00;;
19301;SDS011;9785;59.362;12.152;2023-06-22T03:48:55;6.80;;;3.37;;
19301;SDS011;9785;59.362;12.152;2023-06-22T03:51:24;4.43;;;3.00;;
19301;SDS011;9785;59.362;12.152;2023-06-22T03:53:53;8.93;;;3.47;;
19301;SDS011;9785;59.362;12.152;2023-06-22T03:56:21;6.73;;;3.00;;
19301;SDS011;9785;59.362;12.152;2023-06-22T03:58:51;6.03;;;3.00;;
19301;SDS011;9785;59.362;12.152;2023-06-22T04:01:20;3.10;;;2.90;;
19301;SDS011;9785;59.362;12.152;2023-06-22T04:03:48;6.67;;;2.83;;
19301;SDS011;9785;59.362;12.152;2023-06-22T04:06:17;3.83;;;2.73;;
19301;SDS011;9785;59.362;12.152;2023-06-22T04:08:46;3.33;;;3.00;;
19301;SDS011;9785;59.362;12.152;2023-06-22T04:11:17;2.57;;;2.47;;
19301;SDS011;9785;59.362;12.152;2023-06-22T04:13:46;4.43;;;2.77;;
19301;SDS011;9785;59.362;12.152;2023-06-22T04:16:16;3.10;;;2.70;;
19301;SDS011;9785;59.362;12.152;2023-06-22T04:18:45;3.03;;;2.83;;
19301;SDS011;9785;59.362;12.152;2023-06-22T04:21:13;4.13;;;2.67;;
19301;SDS011;9785;59.362;12.152;2023-06-22T04:23:42;5.20;;;2.47;;
19301;SDS011;9785;59.362;12.152;2023-06-22T04:26:12;3.13;;;2.50;;
19301;SDS011;9785;59.362;12.152;2023-06-22T04:28:41;4.80;;;2.50;;
19301;SDS011;9785;59.362;12.152;2023-06-22T04:31:19;3.40;;;2.70;;
19301;SDS011;9785;59.362;12.152;2023-06-22T04:33:48;3.13;;;2.83;;
19301;SDS011;9785;59.362;12.152;2023-06-22T04:36:17;3.03;;;2.63;;
19301;SDS011;9785;59.362;12.152;2023-06-22T04:38:49;4.30;;;2.60;;
19301;SDS011;9785;59.362;12.152;2023-06-22T04:41:19;3.03;;;2.47;;
19301;SDS011;9785;59.362;12.152;2023-06-22T04:43:50;3.67;;;2.60;;
19301;SDS011;9785;59.362;12.152;2023-06-22T04:46:22;2.93;;;2.23;;
19301;SDS011;9785;59.362;12.152;2023-06-22T04:48:50;3.00;;;2.50;;
19301;SDS011;9785;59.362;12.152;2023-06-22T04:51:19;4.07;;;2.30;;
19301;SDS011;9785;59.362;12.152;2023-06-22T04:53:48;6.67;;;2.37;;
19301;SDS011;9785;59.362;12.152;2023-06-22T04:56:16;2.90;;;2.60;;
19301;SDS011;9785;59.362;12.152;2023-06-22T04:58:48;2.53;;;2.30;;
19301;SDS011;9785;59.362;12.152;2023-06-22T05:01:18;2.33;;;2.23;;
19301;SDS011;9785;59.362;12.152;2023-06-22T05:03:50;4.40;;;2.30;;
19301;SDS011;9785;59.362;12.152;2023-06-22T05:06:22;3.33;;;2.30;;
19301;SDS011;9785;59.362;12.152;2023-06-22T05:08:52;2.30;;;2.10;;
19301;SDS011;9785;59.362;12.152;2023-06-22T05:11:24;6.47;;;2.70;;
19301;SDS011;9785;59.362;12.152;2023-06-22T05:13:53;3.13;;;2.27;;
19301;SDS011;9785;59.362;12.152;2023-06-22T05:16:22;3.93;;;2.27;;
19301;SDS011;9785;59.362;12.152;2023-06-22T05:18:53;3.90;;;2.03;;
19301;SDS011;9785;59.362;12.152;2023-06-22T05:21:22;8.27;;;2.60;;
19301;SDS011;9785;59.362;12.152;2023-06-22T05:23:52;4.83;;;2.33;;
19301;SDS011;9785;59.362;12.152;2023-06-22T05:26:21;8.13;;;2.37;;
19301;SDS011;9785;59.362;12.152;2023-06-22T05:28:49;3.53;;;2.47;;
19301;SDS011;9785;59.362;12.152;2023-06-22T05:31:18;4.43;;;2.33;;
19301;SDS011;9785;59.362;12.152;2023-06-22T05:33:47;2.67;;;2.20;;
19301;SDS011;9785;59.362;12.152;2023-06-22T05:36:17;2.37;;;2.10;;
19301;SDS011;9785;59.362;12.152;2023-06-22T05:38:46;4.27;;;2.23;;
19301;SDS011;9785;59.362;12.152;2023-06-22T05:41:15;5.17;;;2.23;;
19301;SDS011;9785;59.362;12.152;2023-06-22T05:43:44;2.93;;;1.93;;
19301;SDS011;9785;59.362;12.152;2023-06-22T05:46:12;2.20;;;2.07;;
19301;SDS011;9785;59.362;12.152;2023-06-22T05:48:41;2.60;;;2.40;;
19301;SDS011;9785;59.362;12.152;2023-06-22T05:51:09;3.20;;;2.23;;
19301;SDS011;9785;59.362;12.152;2023-06-22T05:53:41;2.33;;;2.23;;
19301;SDS011;9785;59.362;12.152;2023-06-22T05:56:10;2.30;;;2.10;;
19301;SDS011;9785;59.362;12.152;2023-06-22T05:58:39;4.17;;;2.23;;
19301;SDS011;9785;59.362;12.152;2023-06-22T06:01:08;2.47;;;2.03;;
19301;SDS011;9785;59.362;12.152;2023-06-22T06:03:36;2.20;;;2.00;;
19301;SDS011;9785;59.362;12.152;2023-06-22T06:06:07;2.17;;;1.93;;
19301;SDS011;9785;59.362;12.152;2023-06-22T06:08:37;2.10;;;2.00;;
19301;SDS011;9785;59.362;12.152;2023-06-22T06:11:07;2.23;;;2.03;;
19301;SDS011;9785;59.362;12.152;2023-06-22T06:13:36;2.00;;;1.90;;
19301;SDS011;9785;59.362;12.152;2023-06-22T06:16:07;2.47;;;2.00;;
19301;SDS011;9785;59.362;12.152;2023-06-22T06:18:36;2.10;;;2.00;;
19301;SDS011;9785;59.362;12.152;2023-06-22T06:21:05;1.73;;;1.63;;
19301;SDS011;9785;59.362;12.152;2023-06-22T06:23:33;2.00;;;1.90;;
19301;SDS011;9785;59.362;12.152;2023-06-22T06:26:02;2.00;;;1.90;;
19301;SDS011;9785;59.362;12.152;2023-06-22T06:28:35;2.03;;;1.77;;
19301;SDS011;9785;59.362;12.152;2023-06-22T06:31:03;2.00;;;1.90;;
19301;SDS011;9785;59.362;12.152;2023-06-22T06:33:33;2.53;;;1.83;;
19301;SDS011;9785;59.362;12.152;2023-06-22T06:36:02;2.00;;;1.80;;
19301;SDS011;9785;59.362;12.152;2023-06-22T06:38:31;2.10;;;1.90;;
19301;SDS011;9785;59.362;12.152;2023-06-22T06:41:00;3.63;;;1.40;;
19301;SDS011;9785;59.362;12.152;2023-06-22T06:43:28;1.80;;;1.70;;
19301;SDS011;9785;59.362;12.152;2023-06-22T06:45:58;2.13;;;2.00;;
19301;SDS011;9785;59.362;12.152;2023-06-22T06:48:29;3.27;;;1.90;;
19301;SDS011;9785;59.362;12.152;2023-06-22T06:50:58;2.10;;;1.90;;
19301;SDS011;9785;59.362;12.152;2023-06-22T06:53:27;1.90;;;1.80;;
19301;SDS011;9785;59.362;12.152;2023-06-22T06:55:55;1.80;;;1.70;;
19301;SDS011;9785;59.362;12.152;2023-06-22T06:58:24;1.80;;;1.70;;
19301;SDS011;9785;59.362;12.152;2023-06-22T07:00:53;1.97;;;1.53;;
19301;SDS011;9785;59.362;12.152;2023-06-22T07:03:23;1.70;;;1.60;;
19301;SDS011;9785;59.362;12.152;2023-06-22T07:05:51;3.03;;;1.70;;
19301;SDS011;9785;59.362;12.152;2023-06-22T07:08:20;1.53;;;1.50;;
19301;SDS011;9785;59.362;12.152;2023-06-22T07:10:49;4.17;;;1.67;;
19301;SDS011;9785;59.362;12.152;2023-06-22T07:13:17;1.80;;;1.70;;
19301;SDS011;9785;59.362;12.152;2023-06-22T07:15:46;1.73;;;1.50;;
19301;SDS011;9785;59.362;12.152;2023-06-22T07:18:14;2.10;;;1.60;;
19301;SDS011;9785;59.362;12.152;2023-06-22T07:20:44;2.57;;;1.67;;
19301;SDS011;9785;59.362;12.152;2023-06-22T07:23:13;1.70;;;1.63;;
19301;SDS011;9785;59.362;12.152;2023-06-22T07:25:42;3.70;;;1.70;;
19301;SDS011;9785;59.362;12.152;2023-06-22T07:28:11;2.20;;;1.50;;
19301;SDS011;9785;59.362;12.152;2023-06-22T07:30:39;2.17;;;1.70;;
19301;SDS011;9785;59.362;12.152;2023-06-22T07:33:08;1.60;;;1.50;;
19301;SDS011;9785;59.362;12.152;2023-06-22T07:35:37;1.67;;;1.50;;
19301;SDS011;9785;59.362;12.152;2023-06-22T07:38:07;3.07;;;1.40;;
19301;SDS011;9785;59.362;12.152;2023-06-22T07:40:36;1.83;;;1.73;;
19301;SDS011;9785;59.362;12.152;2023-06-22T07:43:04;1.53;;;1.43;;
19301;SDS011;9785;59.362;12.152;2023-06-22T07:45:33;1.27;;;1.27;;
19301;SDS011;9785;59.362;12.152;2023-06-22T07:48:02;1.53;;;1.50;;
19301;SDS011;9785;59.362;12.152;2023-06-22T07:50:31;1.50;;;1.40;;
19301;SDS011;9785;59.362;12.152;2023-06-22T07:52:59;1.60;;;1.50;;
19301;SDS011;9785;59.362;12.152;2023-06-22T07:55:29;1.70;;;1.60;;
19301;SDS011;9785;59.362;12.152;2023-06-22T07:57:59;1.90;;;1.80;;
19301;SDS011;9785;59.362;12.152;2023-06-22T08:00:27;1.57;;;1.47;;
19301;SDS011;9785;59.362;12.152;2023-06-22T08:02:56;1.83;;;1.73;;
19301;SDS011;9785;59.362;12.152;2023-06-22T08:05:25;1.67;;;1.57;;
19301;SDS011;9785;59.362;12.152;2023-06-22T08:07:54;1.40;;;1.40;;
19301;SDS011;9785;59.362;12.152;2023-06-22T08:10:23;1.73;;;1.63;;
19301;SDS011;9785;59.362;12.152;2023-06-22T08:12:53;1.70;;;1.60;;
19301;SDS011;9785;59.362;12.152;2023-06-22T08:17:55;2.87;;;1.60;;
19301;SDS011;9785;59.362;12.152;2023-06-22T08:20:24;1.53;;;1.43;;
19301;SDS011;9785;59.362;12.152;2023-06-22T08:22:53;1.60;;;1.50;;
19301;SDS011;9785;59.362;12.152;2023-06-22T08:25:22;1.97;;;1.80;;
19301;SDS011;9785;59.362;12.152;2023-06-22T08:27:51;2.43;;;1.60;;
19301;SDS011;9785;59.362;12.152;2023-06-22T08:30:21;1.63;;;1.63;;
19301;SDS011;9785;59.362;12.152;2023-06-22T08:32:49;2.87;;;1.63;;
19301;SDS011;9785;59.362;12.152;2023-06-22T08:35:18;1.70;;;1.60;;
19301;SDS011;9785;59.362;12.152;2023-06-22T08:37:47;1.60;;;1.50;;
19301;SDS011;9785;59.362;12.152;2023-06-22T08:40:19;3.23;;;1.60;;
19301;SDS011;9785;59.362;12.152;2023-06-22T08:42:48;1.70;;;1.60;;
19301;SDS011;9785;59.362;12.152;2023-06-22T08:45:16;1.40;;;1.40;;
19301;SDS011;9785;59.362;12.152;2023-06-22T08:47:46;2.03;;;1.80;;
19301;SDS011;9785;59.362;12.152;2023-06-22T08:50:15;3.87;;;1.67;;
19301;SDS011;9785;59.362;12.152;2023-06-22T08:52:44;4.83;;;1.73;;
19301;SDS011;9785;59.362;12.152;2023-06-22T08:55:12;1.90;;;1.80;;
19301;SDS011;9785;59.362;12.152;2023-06-22T08:57:41;1.63;;;1.50;;
19301;SDS011;9785;59.362;12.152;2023-06-22T09:00:10;4.23;;;1.63;;
19301;SDS011;9785;59.362;12.152;2023-06-22T09:02:44;1.57;;;1.47;;
19301;SDS011;9785;59.362;12.152;2023-06-22T09:05:14;1.70;;;1.60;;
19301;SDS011;9785;59.362;12.152;2023-06-22T09:07:43;2.10;;;1.70;;
19301;SDS011;9785;59.362;12.152;2023-06-22T09:10:12;1.95;;;1.80;;
19301;SDS011;9785;59.362;12.152;2023-06-22T09:12:41;1.83;;;1.73;;
19301;SDS011;9785;59.362;12.152;2023-06-22T09:15:10;1.70;;;1.60;;
19301;SDS011;9785;59.362;12.152;2023-06-22T09:17:44;2.30;;;2.00;;
19301;SDS011;9785;59.362;12.152;2023-06-22T09:20:15;1.77;;;1.67;;
19301;SDS011;9785;59.362;12.152;2023-06-22T09:22:45;2.10;;;2.00;;
19301;SDS011;9785;59.362;12.152;2023-06-22T09:25:13;2.33;;;2.13;;
19301;SDS011;9785;59.362;12.152;2023-06-22T09:27:42;3.87;;;2.17;;
19301;SDS011;9785;59.362;12.152;2023-06-22T09:30:11;2.63;;;2.00;;
19301;SDS011;9785;59.362;12.152;2023-06-22T09:32:39;1.77;;;1.70;;
19301;SDS011;9785;59.362;12.152;2023-06-22T09:35:08;2.30;;;1.85;;
19301;SDS011;9785;59.362;12.152;2023-06-22T09:37:40;2.22;;;2.10;;
19301;SDS011;9785;59.362;12.152;2023-06-22T09:40:09;3.50;;;1.80;;
19301;SDS011;9785;59.362;12.152;2023-06-22T09:42:41;5.00;;;2.03;;
19301;SDS011;9785;59.362;12.152;2023-06-22T09:45:10;2.13;;;1.92;;
19301;SDS011;9785;59.362;12.152;2023-06-22T09:47:38;2.72;;;1.80;;
19301;SDS011;9785;59.362;12.152;2023-06-22T09:50:08;2.10;;;1.90;;
19301;SDS011;9785;59.362;12.152;2023-06-22T09:52:36;1.80;;;1.75;;
19301;SDS011;9785;59.362;12.152;2023-06-22T09:55:09;1.50;;;1.40;;
19301;SDS011;9785;59.362;12.152;2023-06-22T09:57:38;2.65;;;1.98;;
19301;SDS011;9785;59.362;12.152;2023-06-22T10:00:07;1.88;;;1.77;;
19301;SDS011;9785;59.362;12.152;2023-06-22T10:02:37;2.13;;;1.92;;
19301;SDS011;9785;59.362;12.152;2023-06-22T10:05:06;2.17;;;1.95;;
19301;SDS011;9785;59.362;12.152;2023-06-22T10:07:35;2.13;;;2.03;;
19301;SDS011;9785;59.362;12.152;2023-06-22T10:10:13;1.75;;;1.65;;
19301;SDS011;9785;59.362;12.152;2023-06-22T10:12:47;2.33;;;1.70;;
19301;SDS011;9785;59.362;12.152;2023-06-22T10:15:17;2.00;;;1.70;;
19301;SDS011;9785;59.362;12.152;2023-06-22T10:17:46;1.80;;;1.60;;
19301;SDS011;9785;59.362;12.152;2023-06-22T10:20:14;2.90;;;1.38;;
19301;SDS011;9785;59.362;12.152;2023-06-22T10:22:45;3.65;;;1.63;;
19301;SDS011;9785;59.362;12.152;2023-06-22T10:25:15;1.92;;;1.83;;
19301;SDS011;9785;59.362;12.152;2023-06-22T10:27:44;2.03;;;1.75;;
19301;SDS011;9785;59.362;12.152;2023-06-22T10:30:13;3.05;;;1.73;;
19301;SDS011;9785;59.362;12.152;2023-06-22T10:32:42;2.53;;;1.80;;
19301;SDS011;9785;59.362;12.152;2023-06-22T10:35:10;1.80;;;1.70;;
19301;SDS011;9785;59.362;12.152;2023-06-22T10:37:42;1.35;;;1.35;;
19301;SDS011;9785;59.362;12.152;2023-06-22T10:40:12;1.50;;;1.40;;
19301;SDS011;9785;59.362;12.152;2023-06-22T10:42:42;1.80;;;1.70;;
19301;SDS011;9785;59.362;12.152;2023-06-22T10:45:11;2.05;;;1.70;;
19301;SDS011;9785;59.362;12.152;2023-06-22T10:47:40;1.30;;;1.30;;
19301;SDS011;9785;59.362;12.152;2023-06-22T10:50:09;1.88;;;1.77;;
19301;SDS011;9785;59.362;12.152;2023-06-22T10:52:38;4.00;;;1.70;;
19301;SDS011;9785;59.362;12.152;2023-06-22T10:55:08;1.73;;;1.73;;
19301;SDS011;9785;59.362;12.152;2023-06-22T10:57:37;2.97;;;2.00;;
19301;SDS011;9785;59.362;12.152;2023-06-22T11:00:12;2.08;;;1.77;;
19301;SDS011;9785;59.362;12.152;2023-06-22T11:02:41;2.45;;;1.70;;
19301;SDS011;9785;59.362;12.152;2023-06-22T11:05:09;1.70;;;1.60;;
19301;SDS011;9785;59.362;12.152;2023-06-22T11:07:41;1.90;;;1.80;;
19301;SDS011;9785;59.362;12.152;2023-06-22T11:10:15;3.22;;;1.48;;
19301;SDS011;9785;59.362;12.152;2023-06-22T11:12:43;1.98;;;1.75;;
19301;SDS011;9785;59.362;12.152;2023-06-22T11:15:13;1.85;;;1.75;;
19301;SDS011;9785;59.362;12.152;2023-06-22T11:17:42;3.58;;;2.15;;
19301;SDS011;9785;59.362;12.152;2023-06-22T11:20:11;1.90;;;1.70;;
19301;SDS011;9785;59.362;12.152;2023-06-22T11:22:40;2.22;;;2.10;;
19301;SDS011;9785;59.362;12.152;2023-06-22T11:25:09;2.47;;;1.80;;
19301;SDS011;9785;59.362;12.152;2023-06-22T11:27:39;1.52;;;1.40;;
19301;SDS011;9785;59.362;12.152;2023-06-22T11:30:08;2.40;;;1.50;;
19301;SDS011;9785;59.362;12.152;2023-06-22T11:32:38;1.70;;;1.60;;
19301;SDS011;9785;59.362;12.152;2023-06-22T11:35:07;2.88;;;1.65;;
19301;SDS011;9785;59.362;12.152;2023-06-22T11:37:36;2.28;;;1.73;;
19301;SDS011;9785;59.362;12.152;2023-06-22T11:40:05;3.00;;;1.90;;
19301;SDS011;9785;59.362;12.152;2023-06-22T11:42:35;1.38;;;1.27;;
19301;SDS011;9785;59.362;12.152;2023-06-22T11:45:05;1.70;;;1.60;;
19301;SDS011;9785;59.362;12.152;2023-06-22T11:47:33;3.40;;;1.58;;
19301;SDS011;9785;59.362;12.152;2023-06-22T11:50:04;3.22;;;2.08;;
19301;SDS011;9785;59.362;12.152;2023-06-22T11:52:33;1.75;;;1.65;;
19301;SDS011;9785;59.362;12.152;2023-06-22T11:55:03;1.40;;;1.40;;
19301;SDS011;9785;59.362;12.152;2023-06-22T11:57:33;1.70;;;1.50;;
19301;SDS011;9785;59.362;12.152;2023-06-22T12:00:02;2.95;;;1.70;;
19301;SDS011;9785;59.362;12.152;2023-06-22T12:02:41;1.90;;;1.80;;
19301;SDS011;9785;59.362;12.152;2023-06-22T12:05:11;1.60;;;1.60;;
19301;SDS011;9785;59.362;12.152;2023-06-22T12:07:40;1.83;;;1.60;;
19301;SDS011;9785;59.362;12.152;2023-06-22T12:10:08;1.65;;;1.63;;
19301;SDS011;9785;59.362;12.152;2023-06-22T12:12:37;2.00;;;1.70;;
19301;SDS011;9785;59.362;12.152;2023-06-22T12:15:06;1.30;;;1.20;;
19301;SDS011;9785;59.362;12.152;2023-06-22T12:17:37;1.52;;;1.42;;
19301;SDS011;9785;59.362;12.152;2023-06-22T12:20:06;1.60;;;1.50;;
19301;SDS011;9785;59.362;12.152;2023-06-22T12:22:37;2.95;;;1.55;;
19301;SDS011;9785;59.362;12.152;2023-06-22T12:25:05;4.45;;;1.83;;
19301;SDS011;9785;59.362;12.152;2023-06-22T12:27:34;2.20;;;1.80;;
19301;SDS011;9785;59.362;12.152;2023-06-22T12:30:03;5.15;;;1.52;;
19301;SDS011;9785;59.362;12.152;2023-06-22T12:32:32;1.73;;;1.58;;
19301;SDS011;9785;59.362;12.152;2023-06-22T12:35:01;1.70;;;1.60;;
19301;SDS011;9785;59.362;12.152;2023-06-22T12:37:30;1.58;;;1.48;;
19301;SDS011;9785;59.362;12.152;2023-06-22T12:40:01;1.52;;;1.52;;
19301;SDS011;9785;59.362;12.152;2023-06-22T12:42:31;2.97;;;1.65;;
19301;SDS011;9785;59.362;12.152;2023-06-22T12:44:59;1.45;;;1.42;;
19301;SDS011;9785;59.362;12.152;2023-06-22T12:47:28;3.00;;;1.65;;
19301;SDS011;9785;59.362;12.152;2023-06-22T12:49:57;1.30;;;1.30;;
19301;SDS011;9785;59.362;12.152;2023-06-22T12:52:26;1.27;;;1.27;;
19301;SDS011;9785;59.362;12.152;2023-06-22T12:54:54;1.40;;;1.40;;
19301;SDS011;9785;59.362;12.152;2023-06-22T12:57:24;1.58;;;1.35;;
19301;SDS011;9785;59.362;12.152;2023-06-22T12:59:53;1.73;;;1.70;;
19301;SDS011;9785;59.362;12.152;2023-06-22T13:02:22;1.75;;;1.65;;
19301;SDS011;9785;59.362;12.152;2023-06-22T13:04:50;1.40;;;1.30;;
19301;SDS011;9785;59.362;12.152;2023-06-22T13:07:19;1.15;;;1.15;;
19301;SDS011;9785;59.362;12.152;2023-06-22T13:09:49;1.70;;;1.60;;
19301;SDS011;9785;59.362;12.152;2023-06-22T13:12:19;3.15;;;1.70;;
19301;SDS011;9785;59.362;12.152;2023-06-22T13:14:49;1.45;;;1.45;;
19301;SDS011;9785;59.362;12.152;2023-06-22T13:17:18;1.50;;;1.50;;
19301;SDS011;9785;59.362;12.152;2023-06-22T13:19:46;2.33;;;1.60;;
19301;SDS011;9785;59.362;12.152;2023-06-22T13:22:25;2.03;;;1.83;;
19301;SDS011;9785;59.362;12.152;2023-06-22T13:24:55;2.13;;;1.90;;
19301;SDS011;9785;59.362;12.152;2023-06-22T13:27:24;2.55;;;2.10;;
19301;SDS011;9785;59.362;12.152;2023-06-22T13:29:54;3.08;;;2.10;;
19301;SDS011;9785;59.362;12.152;2023-06-22T13:32:22;2.25;;;2.10;;
19301;SDS011;9785;59.362;12.152;2023-06-22T13:34:51;1.90;;;1.80;;
19301;SDS011;9785;59.362;12.152;2023-06-22T13:37:20;2.65;;;1.80;;
19301;SDS011;9785;59.362;12.152;2023-06-22T13:39:49;2.10;;;1.90;;
19301;SDS011;9785;59.362;12.152;2023-06-22T13:42:17;2.60;;;1.60;;
19301;SDS011;9785;59.362;12.152;2023-06-22T13:44:46;1.77;;;1.67;;
19301;SDS011;9785;59.362;12.152;2023-06-22T13:47:16;1.85;;;1.75;;
19301;SDS011;9785;59.362;12.152;2023-06-22T13:49:44;1.95;;;1.63;;
19301;SDS011;9785;59.362;12.152;2023-06-22T13:52:13;1.80;;;1.70;;
19301;SDS011;9785;59.362;12.152;2023-06-22T13:54:42;2.28;;;1.85;;
19301;SDS011;9785;59.362;12.152;2023-06-22T13:57:10;2.00;;;1.90;;
19301;SDS011;9785;59.362;12.152;2023-06-22T13:59:39;2.20;;;2.00;;
19301;SDS011;9785;59.362;12.152;2023-06-22T14:02:07;3.55;;;1.90;;
19301;SDS011;9785;59.362;12.152;2023-06-22T14:04:38;1.85;;;1.77;;
19301;SDS011;9785;59.362;12.152;2023-06-22T14:07:06;2.15;;;1.90;;
19301;SDS011;9785;59.362;12.152;2023-06-22T14:09:35;2.05;;;1.85;;
19301;SDS011;9785;59.362;12.152;2023-06-22T14:12:04;2.45;;;1.88;;
19301;SDS011;9785;59.362;12.152;2023-06-22T14:14:33;2.20;;;2.10;;
19301;SDS011;9785;59.362;12.152;2023-06-22T14:17:04;2.70;;;2.00;;
19301;SDS011;9785;59.362;12.152;2023-06-22T14:19:32;3.55;;;2.20;;
19301;SDS011;9785;59.362;12.152;2023-06-22T14:22:03;1.88;;;1.70;;
19301;SDS011;9785;59.362;12.152;2023-06-22T14:24:31;3.22;;;1.98;;
19301;SDS011;9785;59.362;12.152;2023-06-22T14:27:00;1.98;;;1.88;;
19301;SDS011;9785;59.362;12.152;2023-06-22T14:29:29;2.58;;;1.90;;
19301;SDS011;9785;59.362;12.152;2023-06-22T14:31:58;3.58;;;2.03;;
19301;SDS011;9785;59.362;12.152;2023-06-22T14:34:27;2.40;;;2.30;;
19301;SDS011;9785;59.362;12.152;2023-06-22T14:36:56;2.53;;;1.98;;
19301;SDS011;9785;59.362;12.152;2023-06-22T14:39:26;2.15;;;2.05;;
19301;SDS011;9785;59.362;12.152;2023-06-22T14:41:55;1.90;;;1.90;;
19301;SDS011;9785;59.362;12.152;2023-06-22T14:44:23;2.53;;;2.15;;
19301;SDS011;9785;59.362;12.152;2023-06-22T14:46:52;4.03;;;1.73;;
19301;SDS011;9785;59.362;12.152;2023-06-22T14:49:20;1.85;;;1.75;;
19301;SDS011;9785;59.362;12.152;2023-06-22T14:51:49;2.20;;;1.90;;
19301;SDS011;9785;59.362;12.152;2023-06-22T14:54:17;2.00;;;1.90;;
19301;SDS011;9785;59.362;12.152;2023-06-22T14:56:47;2.17;;;2.03;;
19301;SDS011;9785;59.362;12.152;2023-06-22T14:59:16;2.17;;;2.08;;
19301;SDS011;9785;59.362;12.152;2023-06-22T15:01:45;1.95;;;1.90;;